Time;durP1;ratioP1;P1;durP2;ratioP2;P2;SDS_P1;SDS_P2;PMS_P1;PMS_P2;Temp;Humidity;BMP_temperature;BMP_pressure;BME280_temperature;BME280_humidity;BME280_pressure;Samples;Min_cycle;Max_cycle;Signal;HPM_P1;HPM_P2
2021/10/11 00:00:25;;;;;;;20.08;10.23;;;;;;;7.29;56.41;100787.00;5037975;28;20037;-51
2021/10/11 00:02:51;;;;;;;21.20;10.50;;;;;;;7.29;56.17;100781.84;5043599;28;20047;-52
2021/10/11 00:05:17;;;;;;;20.17;10.95;;;;;;;7.27;56.21;100786.19;5043960;28;20048;-51
2021/10/11 00:07:43;;;;;;;20.02;10.30;;;;;;;7.21;55.76;100781.88;5041263;28;20064;-51
2021/10/11 00:10:14;;;;;;;22.48;11.02;;;;;;;7.13;56.04;100775.84;5035866;28;20041;-52
2021/10/11 00:12:40;;;;;;;20.63;10.60;;;;;;;7.19;56.20;100783.59;5034093;28;20519;-54
2021/10/11 00:15:06;;;;;;;21.90;11.30;;;;;;;7.15;56.21;100781.03;5052315;28;20079;-53
2021/10/11 00:17:32;;;;;;;25.67;11.52;;;;;;;7.13;55.80;100773.28;5043529;28;20056;-51
2021/10/11 00:19:58;;;;;;;21.52;11.25;;;;;;;7.06;55.91;100768.13;5041965;28;20037;-52
2021/10/11 00:22:23;;;;;;;24.92;11.52;;;;;;;7.12;56.17;100779.28;5050584;28;20064;-52
2021/10/11 00:24:49;;;;;;;19.88;10.30;;;;;;;7.07;56.11;100782.75;5018306;28;20045;-53
2021/10/11 00:27:17;;;;;;;26.35;12.00;;;;;;;6.99;56.55;100774.19;5033187;28;20049;-48
2021/10/11 00:29:43;;;;;;;23.48;11.95;;;;;;;6.88;57.33;100774.19;5033283;28;20041;-53
2021/10/11 00:32:09;;;;;;;23.50;12.20;;;;;;;6.76;57.21;100764.72;5032918;28;20170;-50
2021/10/11 00:34:36;;;;;;;23.52;12.13;;;;;;;6.84;57.83;100777.66;5023229;28;20119;-50
2021/10/11 00:37:03;;;;;;;25.52;12.38;;;;;;;6.81;57.66;100770.75;5033467;28;20045;-49
2021/10/11 00:39:28;;;;;;;19.40;10.40;;;;;;;6.76;57.71;100769.03;5029733;28;20474;-49
2021/10/11 00:41:54;;;;;;;21.60;11.23;;;;;;;6.70;57.58;100769.03;5026174;28;20099;-48
2021/10/11 00:44:20;;;;;;;23.58;11.73;;;;;;;6.60;57.49;100769.91;5042913;28;20060;-49
2021/10/11 00:46:45;;;;;;;23.42;11.60;;;;;;;6.50;58.39;100774.22;5041138;28;20413;-51
2021/10/11 00:49:12;;;;;;;18.88;10.38;;;;;;;6.45;58.50;100767.34;5030926;28;20061;-51
2021/10/11 00:51:37;;;;;;;21.27;10.90;;;;;;;6.38;58.66;100766.50;5038745;28;20048;-51
2021/10/11 00:54:05;;;;;;;24.23;11.73;;;;;;;6.36;58.25;100771.66;5033195;28;20053;-49
2021/10/11 00:56:31;;;;;;;24.73;11.85;;;;;;;6.36;58.75;100765.63;5050047;28;20425;-50
2021/10/11 00:58:57;;;;;;;22.23;11.48;;;;;;;6.40;58.19;100762.19;5041206;28;20148;-50
2021/10/11 01:01:23;;;;;;;23.08;11.00;;;;;;;6.36;58.28;100751.00;5049878;28;20575;-52
2021/10/11 01:03:49;;;;;;;23.40;10.57;;;;;;;6.41;58.64;100748.41;5049735;28;20045;-51
2021/10/11 01:06:15;;;;;;;23.27;11.63;;;;;;;6.41;58.11;100751.00;5033556;28;20036;-51
2021/10/11 01:08:41;;;;;;;19.67;11.15;;;;;;;6.48;58.24;100757.03;5029041;28;20132;-51
2021/10/11 01:11:06;;;;;;;18.10;9.65;;;;;;;6.38;58.17;100744.09;5037409;28;20051;-49
2021/10/11 01:13:32;;;;;;;21.63;11.43;;;;;;;6.45;57.96;100757.00;5037778;28;20421;-50
2021/10/11 01:15:58;;;;;;;24.38;11.18;;;;;;;6.43;58.22;100751.88;5040627;28;20072;-49
2021/10/11 01:18:24;;;;;;;20.95;11.00;;;;;;;6.42;58.23;100754.44;5051466;28;20068;-50
2021/10/11 01:20:50;;;;;;;22.85;11.20;;;;;;;6.27;58.59;100739.81;5037066;28;20037;-49
2021/10/11 01:23:16;;;;;;;23.20;11.07;;;;;;;6.37;58.56;100764.78;5032585;28;20037;-50
2021/10/11 01:25:42;;;;;;;24.60;11.52;;;;;;;6.36;58.71;100753.59;5048165;28;20045;-51
2021/10/11 01:28:07;;;;;;;22.58;11.52;;;;;;;6.26;58.80;100740.66;5048843;28;20044;-53
2021/10/11 01:30:33;;;;;;;22.10;10.80;;;;;;;6.28;58.91;100757.88;5028292;28;20131;-54
2021/10/11 01:32:59;;;;;;;20.02;10.82;;;;;;;6.21;58.53;100758.75;5032975;28;20052;-50
2021/10/11 01:35:25;;;;;;;27.63;11.52;;;;;;;6.15;59.34;100758.75;5050924;28;20174;-51
2021/10/11 01:37:50;;;;;;;21.55;10.75;;;;;;;6.13;59.30;100757.88;5046415;28;20040;-51
2021/10/11 01:40:17;;;;;;;23.88;10.98;;;;;;;6.06;59.26;100756.16;5049037;28;20131;-49
2021/10/11 01:42:43;;;;;;;21.40;10.52;;;;;;;6.00;59.44;100750.13;5044234;28;20045;-49
2021/10/11 01:45:09;;;;;;;23.00;11.32;;;;;;;6.07;58.91;100746.69;5032061;28;20037;-49
2021/10/11 01:47:36;;;;;;;25.58;11.77;;;;;;;6.13;58.78;100742.38;5041666;28;20405;-51
2021/10/11 01:50:02;;;;;;;19.88;10.40;;;;;;;6.15;58.67;100748.41;5050311;28;20055;-50
2021/10/11 01:52:28;;;;;;;26.20;10.95;;;;;;;6.13;58.39;100739.78;5019679;28;20056;-52
2021/10/11 01:54:54;;;;;;;20.05;10.50;;;;;;;6.13;59.07;100741.50;5024538;28;20041;-54
2021/10/11 01:57:20;;;;;;;23.27;10.85;;;;;;;5.92;58.97;100713.97;5030637;28;20099;-55
2021/10/11 01:59:45;;;;;;;21.80;10.38;;;;;;;6.04;59.18;100736.34;5030389;28;20051;-51
2021/10/11 02:02:11;;;;;;;19.73;10.30;;;;;;;6.03;58.83;100725.16;5033836;28;20513;-53
2021/10/11 02:04:37;;;;;;;24.23;10.45;;;;;;;5.99;59.20;100733.78;5031075;28;20033;-52
2021/10/11 02:07:03;;;;;;;23.48;10.75;;;;;;;5.92;58.65;100734.59;5032060;28;20935;-54
2021/10/11 02:09:29;;;;;;;18.52;10.30;;;;;;;5.94;58.89;100731.19;5042785;28;20066;-51
2021/10/11 02:11:55;;;;;;;21.40;10.13;;;;;;;5.97;58.89;100724.31;5038202;28;20049;-50
2021/10/11 02:14:21;;;;;;;22.88;9.77;;;;;;;5.99;58.69;100726.03;5021242;28;20079;-52
2021/10/11 02:16:47;;;;;;;18.83;9.95;;;;;;;5.97;58.36;100721.75;5061409;28;20073;-54
2021/10/11 02:19:12;;;;;;;23.20;10.43;;;;;;;5.97;58.75;100727.72;5039590;28;20098;-48
2021/10/11 02:21:38;;;;;;;18.63;9.95;;;;;;;5.94;58.95;100727.75;5048507;28;20090;-49
2021/10/11 02:24:04;;;;;;;18.73;10.38;;;;;;;5.95;59.18;100724.31;5050116;28;20086;-50
2021/10/11 02:26:30;;;;;;;18.77;9.77;;;;;;;5.97;59.05;100714.00;5036139;28;20080;-52
2021/10/11 02:28:56;;;;;;;19.25;10.30;;;;;;;5.97;59.02;100711.41;5022738;28;20055;-53
2021/10/11 02:31:22;;;;;;;17.35;9.65;;;;;;;5.89;58.87;100712.25;5040291;28;20144;-54
2021/10/11 02:33:49;;;;;;;18.23;9.35;;;;;;;5.91;59.23;100714.84;5030239;28;20564;-48
2021/10/11 02:36:16;;;;;;;19.95;10.25;;;;;;;5.81;59.06;100705.34;5038259;28;20556;-55
2021/10/11 02:38:41;;;;;;;20.08;9.10;;;;;;;5.83;58.91;100722.53;5030612;28;20045;-50
2021/10/11 02:41:07;;;;;;;23.92;9.77;;;;;;;5.77;59.08;100708.75;5021064;28;20531;-52
2021/10/11 02:43:33;;;;;;;18.48;9.93;;;;;;;5.73;59.54;100709.63;5033512;28;20041;-50
2021/10/11 02:46:01;;;;;;;20.73;11.07;;;;;;;5.73;59.54;100712.19;5027260;28;20052;-53
2021/10/11 02:48:28;;;;;;;22.02;9.73;;;;;;;5.74;59.31;100708.75;5047233;28;20416;-52
2021/10/11 02:50:54;;;;;;;16.90;9.48;;;;;;;5.69;59.54;100713.91;5039178;28;20041;-50
2021/10/11 02:53:19;;;;;;;20.73;9.65;;;;;;;5.63;59.70;100707.88;5025154;28;20038;-50
2021/10/11 02:55:45;;;;;;;25.70;10.48;;;;;;;5.62;59.45;100707.00;5030807;28;20049;-50
2021/10/11 02:58:11;;;;;;;23.67;10.55;;;;;;;5.57;59.60;100700.97;5029564;28;20041;-49
2021/10/11 03:00:36;;;;;;;22.77;9.88;;;;;;;5.53;60.06;100697.56;5028341;28;20140;-49
2021/10/11 03:03:02;;;;;;;23.98;10.15;;;;;;;5.53;60.37;100694.97;5034670;28;20041;-47
2021/10/11 03:05:28;;;;;;;18.45;9.90;;;;;;;5.51;60.27;100700.97;5023458;28;20145;-49
2021/10/11 03:07:53;;;;;;;19.35;10.45;;;;;;;5.42;60.64;100688.06;5026535;28;20574;-49
2021/10/11 03:10:19;;;;;;;21.58;10.50;;;;;;;5.54;60.42;100695.84;5015048;28;20175;-48
2021/10/11 03:12:45;;;;;;;20.92;10.60;;;;;;;5.60;60.38;100692.41;5009833;28;20184;-50
2021/10/11 03:15:11;;;;;;;26.00;10.90;;;;;;;5.61;60.03;100689.81;5009096;28;20132;-51
2021/10/11 03:17:36;;;;;;;19.77;9.73;;;;;;;5.63;59.95;100692.41;5010928;28;20053;-52
2021/10/11 03:20:04;;;;;;;21.23;10.55;;;;;;;5.64;60.29;100694.13;5025637;28;20523;-53
2021/10/11 03:22:30;;;;;;;21.10;9.82;;;;;;;5.63;59.99;100695.84;5020344;28;20045;-54
2021/10/11 03:24:56;;;;;;;21.05;10.45;;;;;;;5.62;60.45;100690.66;5008251;28;20544;-53
2021/10/11 03:27:21;;;;;;;20.33;10.18;;;;;;;5.61;59.97;100684.66;5011051;28;20580;-54
2021/10/11 03:29:47;;;;;;;22.48;10.15;;;;;;;5.59;60.18;100686.38;5010445;28;20038;-49
2021/10/11 03:32:13;;;;;;;22.48;10.63;;;;;;;5.50;60.19;100684.63;5031189;28;20574;-51
2021/10/11 03:34:39;;;;;;;17.38;9.85;;;;;;;5.46;60.93;100687.19;5035982;28;20400;-50
2021/10/11 03:37:05;;;;;;;22.08;9.63;;;;;;;5.45;60.66;100681.19;5037652;28;20048;-49
2021/10/11 03:39:31;;;;;;;23.25;10.90;;;;;;;5.39;60.49;100678.56;5028090;28;20045;-50
2021/10/11 03:41:56;;;;;;;22.25;9.80;;;;;;;5.49;60.48;100692.38;5029469;28;20037;-51
2021/10/11 03:44:22;;;;;;;21.35;10.10;;;;;;;5.50;60.29;100687.19;5028098;28;20579;-49
2021/10/11 03:46:49;;;;;;;20.27;9.38;;;;;;;5.48;60.31;100683.78;5041647;28;20095;-52
2021/10/11 03:49:15;;;;;;;18.30;9.55;;;;;;;5.44;60.57;100687.19;5048703;28;20428;-49
2021/10/11 03:51:40;;;;;;;23.38;9.13;;;;;;;5.38;60.23;100682.03;5030117;28;20056;-53
2021/10/11 03:54:06;;;;;;;18.23;9.13;;;;;;;5.35;60.47;100676.84;5032855;28;20127;-50
2021/10/11 03:56:32;;;;;;;21.90;9.45;;;;;;;5.36;59.89;100686.31;5047534;28;20048;-53
2021/10/11 03:58:58;;;;;;;21.67;9.30;;;;;;;5.37;60.28;100682.88;5037564;28;20045;-51
2021/10/11 04:01:23;;;;;;;17.33;9.18;;;;;;;5.44;59.90;100676.03;5038159;28;20052;-49
2021/10/11 04:03:50;;;;;;;18.63;9.13;;;;;;;5.49;59.85;100687.22;5029773;28;20041;-48
2021/10/11 04:06:17;;;;;;;21.20;9.82;;;;;;;5.51;60.36;100678.63;5030133;28;20566;-51
2021/10/11 04:08:46;;;;;;;20.08;9.45;;;;;;;5.52;59.69;100684.63;5030556;28;20072;-48
2021/10/11 04:13:42;;;;;;;23.85;9.38;;;;;;;5.43;60.27;100685.50;5027561;28;20042;-52
2021/10/11 04:16:08;;;;;;;26.27;11.00;;;;;;;5.44;60.33;100679.44;5022707;28;20045;-49
2021/10/11 04:18:34;;;;;;;21.63;10.13;;;;;;;5.40;60.63;100685.47;5011110;28;20045;-48
2021/10/11 04:21:00;;;;;;;22.63;11.13;;;;;;;5.39;60.61;100680.31;5029131;28;20045;-48
2021/10/11 04:23:27;;;;;;;29.48;12.27;;;;;;;5.36;60.83;100672.56;5029136;28;20398;-48
2021/10/11 04:25:53;;;;;;;26.88;11.20;;;;;;;5.26;60.69;100655.34;5018554;28;20050;-51
2021/10/11 04:28:19;;;;;;;23.95;11.77;;;;;;;5.42;60.58;100677.75;5012782;28;20045;-49
2021/10/11 04:30:45;;;;;;;25.25;10.30;;;;;;;5.50;60.82;100687.19;5020065;28;20044;-47
2021/10/11 04:33:12;;;;;;;25.55;10.70;;;;;;;5.36;60.94;100663.13;5022616;28;20050;-47
2021/10/11 04:35:38;;;;;;;19.85;9.13;;;;;;;5.43;61.45;100679.47;5031710;28;20629;-49
2021/10/11 04:38:04;;;;;;;24.35;10.75;;;;;;;5.41;60.86;100671.72;5030657;28;20493;-51
2021/10/11 04:40:30;;;;;;;31.55;11.57;;;;;;;5.45;60.87;100676.03;5032349;28;20453;-50
2021/10/11 04:42:56;;;;;;;25.80;10.65;;;;;;;5.55;60.82;100675.19;5031976;28;20041;-48
2021/10/11 04:45:28;;;;;;;24.50;11.55;;;;;;;5.62;60.33;100678.63;5031222;28;20048;-49
2021/10/11 04:47:58;;;;;;;24.40;10.38;;;;;;;5.59;60.32;100676.06;5040571;28;20032;-49
2021/10/11 04:50:24;;;;;;;28.80;11.65;;;;;;;5.59;59.90;100681.22;5037856;28;20052;-52
2021/10/11 04:52:50;;;;;;;30.45;11.75;;;;;;;5.69;59.86;100679.50;5030424;28;20048;-46
2021/10/11 04:55:16;;;;;;;29.10;10.13;;;;;;;5.66;59.86;100654.56;5032193;28;20037;-49
2021/10/11 04:57:42;;;;;;;23.00;9.02;;;;;;;5.74;59.60;100673.50;5032220;28;20041;-51
2021/10/11 05:00:08;;;;;;;18.08;8.50;;;;;;;5.78;58.90;100669.19;5043011;28;20095;-49
2021/10/11 05:02:35;;;;;;;20.75;9.70;;;;;;;5.87;59.01;100676.97;5029570;28;20041;-56
2021/10/11 05:05:01;;;;;;;16.02;8.48;;;;;;;5.93;58.61;100661.50;5030154;28;20410;-57
2021/10/11 05:07:27;;;;;;;19.38;8.48;;;;;;;6.12;58.00;100678.72;5029295;28;20041;-58
2021/10/11 05:09:52;;;;;;;20.77;7.93;;;;;;;6.27;58.19;100677.84;5030279;28;20034;-50
2021/10/11 05:12:18;;;;;;;20.63;9.10;;;;;;;6.29;57.40;100674.38;5029771;28;20067;-50
2021/10/11 05:14:45;;;;;;;17.90;8.00;;;;;;;6.41;57.57;100676.09;5041755;28;20033;-51
2021/10/11 05:17:10;;;;;;;17.30;9.00;;;;;;;6.61;56.81;100670.88;5038884;28;20052;-57
2021/10/11 05:19:36;;;;;;;19.10;8.07;;;;;;;6.93;55.99;100681.13;5029706;28;20146;-51
2021/10/11 05:22:02;;;;;;;15.00;8.27;;;;;;;7.25;55.27;100679.25;5029387;28;20049;-51
2021/10/11 05:24:30;;;;;;;15.55;7.90;;;;;;;7.84;53.72;100675.44;5037975;28;20476;-51
2021/10/11 05:26:55;;;;;;;17.88;8.23;;;;;;;8.69;51.55;100674.72;5045112;28;20575;-48
2021/10/11 05:29:21;;;;;;;17.25;8.48;;;;;;;9.26;49.35;100667.97;5050458;28;20156;-53
2021/10/11 05:31:48;;;;;;;17.23;8.98;;;;;;;9.87;48.04;100672.25;5047197;28;20115;-52
2021/10/11 05:34:14;;;;;;;18.65;8.35;;;;;;;10.55;47.14;100665.91;5012792;28;20029;-54
2021/10/11 05:36:40;;;;;;;19.70;8.18;;;;;;;11.17;44.37;100672.47;5033721;28;20103;-50
2021/10/11 05:39:06;;;;;;;20.90;8.30;;;;;;;11.33;43.18;100652.19;5049432;28;20361;-50
2021/10/11 05:41:32;;;;;;;20.35;8.75;;;;;;;11.81;41.74;100664.13;5032710;28;20045;-53
2021/10/11 05:43:58;;;;;;;17.25;8.93;;;;;;;12.25;42.08;100662.16;5043996;28;20106;-52
2021/10/11 05:46:23;;;;;;;16.73;8.43;;;;;;;12.76;40.70;100659.09;5028256;28;20066;-54
2021/10/11 05:48:49;;;;;;;15.48;9.07;;;;;;;13.21;39.72;100659.56;5021400;28;20484;-50
2021/10/11 05:51:15;;;;;;;14.38;8.38;;;;;;;13.46;38.06;100666.59;5013502;28;20044;-55
2021/10/11 05:53:41;;;;;;;18.70;8.57;;;;;;;13.79;38.07;100663.84;5030541;28;20132;-48
2021/10/11 05:56:07;;;;;;;20.25;9.85;;;;;;;14.48;37.45;100659.84;5016018;28;20048;-50
2021/10/11 05:58:33;;;;;;;19.90;8.82;;;;;;;15.03;36.33;100666.56;5048411;28;20045;-47
2021/10/11 06:00:59;;;;;;;20.55;9.30;;;;;;;15.94;34.70;100663.03;5034678;28;20099;-51
2021/10/11 06:03:24;;;;;;;22.02;10.50;;;;;;;16.68;33.38;100656.41;5018189;28;20041;-50
2021/10/11 06:05:52;;;;;;;21.67;10.30;;;;;;;17.25;32.73;100660.81;5048376;28;20079;-51
2021/10/11 06:08:19;;;;;;;18.77;9.20;;;;;;;17.58;31.50;100645.25;5045369;28;20091;-49
2021/10/11 06:10:45;;;;;;;19.35;9.88;;;;;;;18.08;31.16;100630.50;5023028;28;20048;-58
2021/10/11 06:13:11;;;;;;;21.48;10.40;;;;;;;18.83;30.76;100651.22;5022481;28;20052;-59
2021/10/11 06:15:37;;;;;;;22.27;10.70;;;;;;;19.50;29.60;100652.84;5025719;28;20041;-57
2021/10/11 06:18:03;;;;;;;18.15;9.27;;;;;;;19.93;28.23;100651.28;5027798;28;20066;-58
2021/10/11 06:20:29;;;;;;;16.63;10.20;;;;;;;20.13;27.90;100650.97;5028847;28;20041;-55
2021/10/11 06:22:55;;;;;;;22.35;9.98;;;;;;;20.15;27.52;100642.97;5029883;28;20398;-56
2021/10/11 06:25:21;;;;;;;22.27;10.88;;;;;;;20.28;27.16;100642.16;5023117;28;20054;-60
2021/10/11 06:27:47;;;;;;;17.63;9.43;;;;;;;20.48;26.92;100640.13;5009928;28;20038;-55
2021/10/11 06:30:13;;;;;;;19.13;10.80;;;;;;;20.95;26.17;100638.09;5010281;28;20532;-54
2021/10/11 06:32:38;;;;;;;18.83;10.10;;;;;;;21.47;25.39;100638.34;5020403;28;20044;-58
2021/10/11 06:35:05;;;;;;;22.20;10.05;;;;;;;21.88;25.01;100637.44;5025490;28;20559;-58
2021/10/11 06:37:30;;;;;;;23.40;11.85;;;;;;;22.28;24.34;100641.81;5030132;28;20045;-57
2021/10/11 06:39:56;;;;;;;21.60;10.00;;;;;;;22.37;24.01;100624.44;5028457;28;20418;-57
2021/10/11 06:42:22;;;;;;;18.95;9.65;;;;;;;22.87;23.66;100636.91;5029885;28;20052;-54
2021/10/11 06:44:48;;;;;;;19.40;10.27;;;;;;;23.06;23.14;100631.97;5026889;28;20441;-57
2021/10/11 06:47:13;;;;;;;18.23;9.95;;;;;;;23.34;22.94;100625.56;5019055;28;20049;-57
2021/10/11 06:49:39;;;;;;;20.27;9.77;;;;;;;23.50;22.70;100615.53;5027552;28;20056;-57
2021/10/11 06:52:05;;;;;;;16.52;9.73;;;;;;;23.59;22.17;100620.19;5028539;28;20592;-55
2021/10/11 06:54:31;;;;;;;17.42;9.82;;;;;;;23.57;22.05;100611.47;5029606;28;20071;-57
2021/10/11 06:56:57;;;;;;;21.38;9.90;;;;;;;23.53;21.90;100614.47;5028033;28;20041;-58
2021/10/11 06:59:22;;;;;;;19.10;9.70;;;;;;;23.28;22.35;100617.19;5010035;28;20137;-57
2021/10/11 07:01:48;;;;;;;17.70;9.98;;;;;;;24.18;21.85;100606.91;5008866;28;20045;-57
2021/10/11 07:04:14;;;;;;;19.10;10.15;;;;;;;24.61;21.20;100614.22;5041678;28;20045;-57
2021/10/11 07:06:42;;;;;;;15.65;10.18;;;;;;;24.51;21.31;100605.28;5010020;28;20570;-58
2021/10/11 07:09:08;;;;;;;23.45;10.50;;;;;;;24.84;20.92;100595.53;5026392;28;20049;-58
2021/10/11 07:11:34;;;;;;;23.05;10.73;;;;;;;25.27;20.89;100590.31;5028248;28;20037;-55
2021/10/11 07:14:00;;;;;;;25.13;10.15;;;;;;;25.32;20.70;100597.91;5027653;28;20041;-59
2021/10/11 07:16:25;;;;;;;13.85;8.80;;;;;;;25.79;19.86;100598.53;5027612;28;20052;-58
2021/10/11 07:18:51;;;;;;;15.55;9.48;;;;;;;25.05;19.99;100592.16;5029136;28;20045;-56
2021/10/11 07:21:17;;;;;;;20.45;9.85;;;;;;;24.77;20.45;100594.31;5023536;28;20046;-57
2021/10/11 07:23:43;;;;;;;16.83;9.50;;;;;;;24.77;20.82;100582.81;5025794;28;20049;-57
2021/10/11 07:26:08;;;;;;;21.00;11.05;;;;;;;25.11;20.49;100583.69;5027254;28;20033;-57
2021/10/11 07:28:35;;;;;;;19.70;10.60;;;;;;;25.25;20.28;100583.41;5027445;28;20496;-57
2021/10/11 07:31:01;;;;;;;15.75;9.93;;;;;;;24.88;20.50;100583.69;5028925;28;20398;-57
2021/10/11 07:33:26;;;;;;;23.27;10.93;;;;;;;24.53;20.96;100587.41;5014077;28;20037;-55
2021/10/11 07:35:53;;;;;;;37.40;18.38;;;;;;;24.93;20.90;100585.97;5024715;28;20480;-58
2021/10/11 07:38:19;;;;;;;20.02;10.27;;;;;;;25.43;20.14;100587.25;5009449;28;20034;-57
2021/10/11 07:40:45;;;;;;;17.45;10.65;;;;;;;25.86;19.98;100581.88;5009338;28;20155;-58
2021/10/11 07:43:11;;;;;;;17.73;10.57;;;;;;;26.29;19.56;100580.94;5009467;28;20186;-58
2021/10/11 07:45:37;;;;;;;14.13;9.82;;;;;;;26.63;19.17;100582.41;5026236;28;20091;-58
2021/10/11 07:48:02;;;;;;;17.73;10.32;;;;;;;26.41;19.08;100586.09;5013057;28;20041;-57
2021/10/11 07:50:29;;;;;;;21.67;10.88;;;;;;;26.30;19.74;100577.31;5024058;28;20058;-57
2021/10/11 07:52:55;;;;;;;27.05;11.45;;;;;;;26.33;19.42;100574.38;5012712;28;20042;-54
2021/10/11 07:55:21;;;;;;;23.42;10.82;;;;;;;26.12;19.42;100569.88;5028711;28;20118;-57
2021/10/11 07:57:47;;;;;;;15.90;10.32;;;;;;;26.27;19.17;100566.91;5029111;28;20041;-58
2021/10/11 08:00:16;;;;;;;18.10;10.13;;;;;;;25.57;20.00;100575.47;5027997;28;20048;-57
2021/10/11 08:02:45;;;;;;;22.65;11.95;;;;;;;25.27;20.30;100565.50;5022223;28;20144;-55
2021/10/11 08:05:15;;;;;;;18.33;11.52;;;;;;;25.29;20.13;100567.03;5020043;28;20527;-57
2021/10/11 08:07:41;;;;;;;19.27;10.45;;;;;;;25.08;20.19;100544.84;5043179;28;20061;-59
2021/10/11 08:10:09;;;;;;;17.15;10.77;;;;;;;25.29;20.14;100560.88;5012269;28;20041;-58
2021/10/11 08:12:35;;;;;;;13.98;10.68;;;;;;;25.39;20.14;100559.16;5012457;28;20567;-59
2021/10/11 08:15:00;;;;;;;12.88;9.80;;;;;;;25.94;19.62;100557.28;5029450;28;20045;-57
2021/10/11 08:17:26;;;;;;;20.52;10.70;;;;;;;26.56;19.20;100563.44;5032480;28;20531;-54
2021/10/11 08:19:52;;;;;;;18.48;11.10;;;;;;;26.68;18.86;100550.84;5032040;28;20042;-56
2021/10/11 08:22:21;;;;;;;20.20;11.13;;;;;;;26.69;19.05;100554.34;5032259;28;20041;-55
2021/10/11 08:24:48;;;;;;;22.45;11.15;;;;;;;26.69;19.04;100554.34;5031927;28;20041;-55
2021/10/11 08:27:16;;;;;;;17.85;11.02;;;;;;;26.63;19.03;100554.88;5012567;28;20117;-59
2021/10/11 08:29:55;;;;;;;21.35;12.75;;;;;;;27.39;18.74;100543.59;5011697;28;20044;-56
2021/10/11 08:32:23;;;;;;;20.33;11.40;;;;;;;27.77;18.41;100550.81;5012274;28;20049;-58
2021/10/11 08:34:51;;;;;;;14.68;10.43;;;;;;;28.11;18.27;100549.34;5012426;28;20041;-58
2021/10/11 08:37:16;;;;;;;16.38;10.85;;;;;;;28.25;17.64;100539.22;5031085;28;20095;-59
2021/10/11 08:39:43;;;;;;;17.65;11.40;;;;;;;28.34;17.61;100549.88;5030441;28;20141;-59
2021/10/11 08:42:13;;;;;;;18.88;10.80;;;;;;;28.47;17.41;100530.84;5032029;28;20065;-58
2021/10/11 08:44:39;;;;;;;16.50;11.75;;;;;;;28.33;17.30;100529.47;5020843;28;20499;-58
2021/10/11 08:47:05;;;;;;;16.02;10.93;;;;;;;28.19;17.18;100540.63;5019016;28;20120;-56
2021/10/11 08:49:30;;;;;;;17.60;12.05;;;;;;;28.37;17.22;100538.06;5031795;28;20073;-56
2021/10/11 08:51:56;;;;;;;18.95;11.65;;;;;;;28.53;16.75;100541.78;5032165;28;20049;-57
2021/10/11 08:54:22;;;;;;;13.38;9.95;;;;;;;28.20;16.79;100535.16;5031899;28;20129;-58
2021/10/11 08:56:48;;;;;;;19.00;11.27;;;;;;;28.66;16.50;100538.78;5027487;28;21059;-57
2021/10/11 08:59:25;;;;;;;13.95;9.45;;;;;;;27.74;16.63;100529.72;5011678;28;20042;-57
2021/10/11 09:02:06;;;;;;;14.32;10.43;;;;;;;27.22;17.17;100521.06;5029076;28;20172;-57
2021/10/11 09:04:32;;;;;;;17.67;11.07;;;;;;;28.05;17.13;100523.19;5030394;28;20049;-55
2021/10/11 09:07:05;;;;;;;14.75;10.45;;;;;;;28.65;16.75;100513.84;5031067;28;20128;-56
2021/10/11 09:09:52;;;;;;;14.43;9.40;;;;;;;28.87;16.42;100509.13;5030221;28;20515;-58
2021/10/11 09:12:38;;;;;;;16.42;9.45;;;;;;;28.81;16.10;100513.25;5030045;28;20049;-56
2021/10/11 09:15:09;;;;;;;12.95;9.85;;;;;;;28.53;16.25;100517.69;5029840;28;20170;-59
2021/10/11 09:17:42;;;;;;;16.85;10.52;;;;;;;28.12;16.42;100510.94;5023690;28;20548;-57
2021/10/11 09:20:29;;;;;;;20.40;10.32;;;;;;;29.01;16.19;100504.09;5011437;28;20137;-56
2021/10/11 09:22:56;;;;;;;19.83;9.23;;;;;;;29.15;15.91;100502.75;5011067;28;20050;-59
2021/10/11 09:25:40;;;;;;;15.35;9.07;;;;;;;28.80;15.64;100497.31;5009899;28;20084;-58
2021/10/11 09:28:07;;;;;;;20.23;8.18;;;;;;;29.48;15.44;100504.75;5020337;28;20045;-57
2021/10/11 09:30:35;;;;;;;10.60;8.00;;;;;;;29.24;15.33;100503.66;5030594;28;20092;-57
2021/10/11 09:33:13;;;;;;;13.98;8.48;;;;;;;28.73;15.65;100498.94;5045888;28;20045;-58
2021/10/11 09:35:40;;;;;;;9.33;8.03;;;;;;;28.30;15.97;100503.03;5028932;28;20041;-58
2021/10/11 09:38:24;;;;;;;14.15;8.25;;;;;;;28.04;16.54;100494.78;5029137;28;20049;-59
2021/10/11 09:41:00;;;;;;;12.43;8.80;;;;;;;28.74;15.87;100488.03;5031073;28;20072;-57
2021/10/11 09:43:27;;;;;;;14.15;8.90;;;;;;;29.83;15.50;100489.63;5013202;28;20047;-58
2021/10/11 09:45:53;;;;;;;14.50;9.68;;;;;;;30.31;14.72;100471.16;5030860;28;20072;-58
2021/10/11 09:48:20;;;;;;;10.52;8.07;;;;;;;30.73;14.52;100476.56;5020061;28;20512;-56
2021/10/11 09:50:46;;;;;;;13.00;9.05;;;;;;;31.01;14.27;100466.41;5046130;28;20103;-57
2021/10/11 09:53:15;;;;;;;13.02;9.25;;;;;;;31.48;14.47;100479.25;5029425;28;20498;-56
2021/10/11 09:55:41;;;;;;;10.18;8.38;;;;;;;31.52;13.80;100461.78;5030615;28;20493;-58
2021/10/11 09:58:11;;;;;;;11.35;8.93;;;;;;;30.22;14.52;100472.13;5023058;28;20045;-57
2021/10/11 10:00:41;;;;;;;14.65;8.57;;;;;;;30.10;14.36;100468.03;5010502;28;20068;-56
2021/10/11 10:03:09;;;;;;;11.45;8.07;;;;;;;30.22;14.44;100474.81;5038300;28;20201;-58
2021/10/11 10:05:45;;;;;;;13.60;9.00;;;;;;;30.86;14.14;100461.84;5030256;28;20037;-58
2021/10/11 10:08:21;;;;;;;10.68;8.10;;;;;;;30.76;13.96;100466.53;5044721;28;20045;-58
2021/10/11 10:10:48;;;;;;;13.10;8.93;;;;;;;29.69;14.83;100458.00;5028981;28;20037;-57
2021/10/11 10:13:19;;;;;;;10.82;8.43;;;;;;;29.66;15.14;100453.81;5028879;28;20051;-57
2021/10/11 10:15:45;;;;;;;15.10;8.32;;;;;;;30.12;14.90;100454.47;5028446;28;20052;-59
2021/10/11 10:18:14;;;;;;;11.38;8.13;;;;;;;30.48;14.49;100447.13;5025984;28;20073;-58
2021/10/11 10:21:09;;;;;;;;;;;;;;;30.80;14.66;100446.38;5010663;28;20091;-57
2021/10/11 10:23:36;;;;;;;11.75;8.43;;;;;;;31.10;13.85;100433.19;5013760;28;20305;-57
2021/10/11 10:26:06;;;;;;;9.95;8.15;;;;;;;31.21;13.80;100455.38;5010270;28;20047;-59
2021/10/11 10:28:45;;;;;;;10.48;8.23;;;;;;;29.44;14.71;100443.59;5013803;28;20045;-56
2021/10/11 10:31:36;;;;;;;10.80;7.75;;;;;;;29.14;15.05;100438.59;5029883;28;20175;-57
2021/10/11 10:34:19;;;;;;;12.80;7.72;;;;;;;29.06;14.94;100424.13;5029540;28;20041;-57
2021/10/11 10:36:58;;;;;;;9.55;6.45;;;;;;;29.38;14.51;100425.44;5028239;28;20048;-59
2021/10/11 10:40:03;;;;;;;9.02;7.00;;;;;;;29.50;14.47;100413.50;5015992;28;20046;-58
2021/10/11 10:42:30;;;;;;;8.15;6.22;;;;;;;29.93;14.36;100423.38;5013095;28;20054;-56
2021/10/11 10:44:57;;;;;;;10.45;7.07;;;;;;;29.17;14.49;100409.66;5009495;28;20131;-58
2021/10/11 10:47:38;;;;;;;9.77;7.13;;;;;;;29.15;14.83;100405.47;5009214;28;20136;-57
2021/10/11 10:50:16;;;;;;;8.75;7.80;;;;;;;29.17;14.66;100408.81;5025980;28;20123;-58
2021/10/11 10:52:45;;;;;;;;;;;;;;;29.11;14.71;100401.41;5028313;28;20037;-58
2021/10/11 10:55:11;;;;;;;9.25;6.47;;;;;;;28.56;14.95;100397.00;5060774;28;20336;-59
2021/10/11 10:57:37;;;;;;;8.00;6.00;;;;;;;28.47;14.99;100395.19;5028834;28;20106;-57
2021/10/11 11:00:17;;;;;;;12.32;6.38;;;;;;;28.18;15.36;100389.19;5027465;28;20049;-56
2021/10/11 11:02:48;;;;;;;9.68;6.82;;;;;;;28.34;15.25;100389.38;5019600;28;20042;-57
2021/10/11 11:05:14;;;;;;;12.00;6.78;;;;;;;28.36;15.53;100375.88;5009313;28;20037;-56
2021/10/11 11:07:42;;;;;;;9.88;6.70;;;;;;;28.98;15.15;100378.56;5008241;28;20041;-57
2021/10/11 11:10:28;;;;;;;9.52;6.70;;;;;;;29.80;14.62;100380.84;5038446;28;20135;-56
2021/10/11 11:12:54;;;;;;;8.63;6.35;;;;;;;28.98;14.54;100370.53;5027474;28;20141;-58
2021/10/11 11:15:37;;;;;;;10.38;6.38;;;;;;;28.57;15.00;100368.41;5029033;28;20148;-57
2021/10/11 11:18:09;;;;;;;8.50;6.15;;;;;;;27.47;16.00;100369.25;5029556;28;20045;-57
2021/10/11 11:20:38;;;;;;;10.35;6.10;;;;;;;26.30;16.99;100367.50;5011482;28;20537;-59
2021/10/11 11:23:05;;;;;;;;;;;;;;;25.58;17.39;100361.44;5008961;28;20034;-57